Morton Grove, IL

8:59 AM CDT on March 29, 2015 (GMT -0500)
Village Of Niles | | Change Station
CLOSE
Current Station
Personal Weather Station
Location: Niles, IL
Elevation: 636 ft
Nearby Weather Stations
Active Advisory: Special Statement

Elev 636 ft 42.04 °N, 87.81 °W | Updated 11 seconds ago

Mostly Cloudy
Mostly Cloudy
36.1 °F
Feels Like 31 °F
N
6.7
Wind Variable Wind from South
Gusts 9.8 mph

Today
High -- | Low -- °F
--% Chance of Precip.
Yesterday
High -- | Low -- °F
Precip. -- in
6:39 AM 7:13 PM
Waxing Gibbous, 71% visible
Pressure 30.09 in
Visibility 10.0 miles
Clouds Mostly Cloudy 16000 ft
Overcast 22000 ft
Windchill 31 °F
Dew Point 13 °F
Humidity 38%
Rainfall 0.00 in
Snow Depth Not available.
UV 1.0 out of 12
Pollen 3.90 out of 12
Air Quality Not available.
Flu Activity Not available.
METAR KORD 291351Z 19018G25KT 10SM BKN160 OVC220 01/M09 A3006 RMK AO2 PK WND 19028/1329 SLP188 T00111089

More Conditions Fewer Conditions

Pressure 30.09 in
Visibility 10.0 miles
Clouds Mostly Cloudy 16000 ft
Overcast 22000 ft
Windchill 31 °F
Dew Point 13 °F
Humidity 38%
Rainfall 0.00 in
Snow Depth Not available.
UV 1.0 out of 12
Pollen 3.90 out of 12
Air Quality Not available.
Flu Activity Not available.
METAR KORD 291351Z 19018G25KT 10SM BKN160 OVC220 01/M09 A3006 RMK AO2 PK WND 19028/1329 SLP188 T00111089

More Conditions Fewer Conditions

10-Day Weather Forecast

Almanac

Astronomy

Mar. 29, 2015 Rise Set
Actual Time
Civil Twilight
Nautical Twilight
Astronomical Twilight
Moon
Length of Visible Light
Length of Day
Tomorrow will be .
, % of the Moon is Illuminated

Today's Extremes

State Highs State Lows

Community

WunderPhotos

Upload Photos

1,809,234 photos uploaded!

WunderBlogs® & News

Nearby

Air Quality

  Air Quality AQ Index Pollutant
Not available.

Snow Depth

Station Depth Elevation

Earthquake Activity

City Distance Mag. Time & Date
Minimum magnitude displayed is 2.5.

Coastal Water Temperatures

Place Temperature

Stations

Nearby Weather Stations

Station Location Temp. Windchill Dew Point Humidity Wind Precip. Elev Updated Type
                   
Special Statement
Statement as of 3:43 AM CDT on March 29, 2015

... Gusty winds today...

Moderately strong winds will develop across northern Illinois and
Northwest Indiana by mid morning and last through mid afternoon
before tapering. Sustained southwest winds of 20 to 30 mph with
gusts to 40 mph are expected. Winds of this magnitude can make
driving difficult... especially for high profile vehicles. Be sure
to secure any loose items left outside.


Mtf/bmd